sensor_id;sensor_type;location;lat;lon;timestamp;pressure;altitude;pressure_sealevel;temperature;humidity
22261;BME280;11299;43.202;27.920;2023-04-30T00:01:40;57150.53;;;8.05;100.00
22261;BME280;11299;43.202;27.920;2023-04-30T00:04:05;48812.81;;;8.12;100.00
22261;BME280;11299;43.202;27.920;2023-04-30T00:06:30;40488.31;;;8.11;100.00
22261;BME280;11299;43.202;27.920;2023-04-30T00:08:56;37379.19;;;8.22;100.00
22261;BME280;11299;43.202;27.920;2023-04-30T00:11:22;37344.44;;;7.67;100.00
22261;BME280;11299;43.202;27.920;2023-04-30T00:13:47;37023.34;;;8.06;100.00
22261;BME280;11299;43.202;27.920;2023-04-30T00:16:13;39446.31;;;8.06;100.00
22261;BME280;11299;43.202;27.920;2023-04-30T00:18:38;42566.59;;;8.10;100.00
22261;BME280;11299;43.202;27.920;2023-04-30T00:21:04;41871.69;;;8.07;100.00
22261;BME280;11299;43.202;27.920;2023-04-30T00:23:29;44296.31;;;8.05;100.00
22261;BME280;11299;43.202;27.920;2023-04-30T00:25:55;48455.00;;;7.99;100.00
22261;BME280;11299;43.202;27.920;2023-04-30T00:28:20;51929.97;;;8.01;100.00
22261;BME280;11299;43.202;27.920;2023-04-30T00:30:46;54018.44;;;8.04;100.00
22261;BME280;11299;43.202;27.920;2023-04-30T00:33:11;57058.78;;;7.08;100.00
22261;BME280;11299;43.202;27.920;2023-04-30T00:35:37;58890.34;;;8.04;100.00
22261;BME280;11299;43.202;27.920;2023-04-30T00:38:02;59605.84;;;8.23;100.00
22261;BME280;11299;43.202;27.920;2023-04-30T00:40:28;59241.06;;;8.06;100.00
22261;BME280;11299;43.202;27.920;2023-04-30T00:42:53;60281.59;;;8.02;100.00
22261;BME280;11299;43.202;27.920;2023-04-30T00:45:20;62011.47;;;7.90;100.00
22261;BME280;11299;43.202;27.920;2023-04-30T00:47:46;64471.66;;;8.08;100.00
22261;BME280;11299;43.202;27.920;2023-04-30T00:50:13;64803.22;;;7.92;100.00
22261;BME280;11299;43.202;27.920;2023-04-30T00:52:43;65855.22;;;7.97;100.00
22261;BME280;11299;43.202;27.920;2023-04-30T00:55:10;64458.22;;;7.96;100.00
22261;BME280;11299;43.202;27.920;2023-04-30T00:57:37;61967.97;;;7.47;100.00
22261;BME280;11299;43.202;27.920;2023-04-30T01:00:03;57431.78;;;7.35;100.00
22261;BME280;11299;43.202;27.920;2023-04-30T01:02:29;53262.75;;;7.36;100.00
22261;BME280;11299;43.202;27.920;2023-04-30T01:04:55;49150.19;;;8.00;100.00
22261;BME280;11299;43.202;27.920;2023-04-30T01:07:21;42574.81;;;8.21;100.00
22261;BME280;11299;43.202;27.920;2023-04-30T01:09:47;35988.25;;;8.11;100.00
22261;BME280;11299;43.202;27.920;2023-04-30T01:12:31;34891.47;;;7.10;100.00
22261;BME280;11299;43.202;27.920;2023-04-30T01:15:26;37356.44;;;7.86;100.00
22261;BME280;11299;43.202;27.920;2023-04-30T01:20:20;36662.81;;;7.83;100.00
22261;BME280;11299;43.202;27.920;2023-04-30T01:25:43;28729.19;;;8.06;100.00
22261;BME280;11299;43.202;27.920;2023-04-30T01:28:17;19762.72;;;7.92;100.00
22261;BME280;11299;43.202;27.920;2023-04-30T01:30:44;10817.16;;;7.42;100.00
22261;BME280;11299;43.202;27.920;2023-04-30T01:33:13;546.94;;;8.05;100.00
22261;BME280;11299;43.202;27.920;2023-04-30T01:46:30;-18809.06;;;7.98;100.00
22261;BME280;11299;43.202;27.920;2023-04-30T01:49:17;-13113.72;;;8.08;100.00
22261;BME280;11299;43.202;27.920;2023-04-30T01:51:44;-9360.16;;;7.88;100.00
22261;BME280;11299;43.202;27.920;2023-04-30T01:54:35;-2872.56;;;7.67;100.00
22261;BME280;11299;43.202;27.920;2023-04-30T01:57:06;204.19;;;7.84;100.00
22261;BME280;11299;43.202;27.920;2023-04-30T01:59:34;-2873.50;;;8.06;100.00
22261;BME280;11299;43.202;27.920;2023-04-30T02:01:59;-4239.66;;;7.84;100.00
22261;BME280;11299;43.202;27.920;2023-04-30T02:04:25;-7312.22;;;7.80;100.00
22261;BME280;11299;43.202;27.920;2023-04-30T02:06:50;-6970.00;;;7.69;100.00
22261;BME280;11299;43.202;27.920;2023-04-30T02:09:16;-6631.06;;;7.97;100.00
22261;BME280;11299;43.202;27.920;2023-04-30T02:11:41;-9702.16;;;7.95;100.00
22261;BME280;11299;43.202;27.920;2023-04-30T02:14:07;-11394.97;;;7.19;100.00
22261;BME280;11299;43.202;27.920;2023-04-30T02:16:32;-13438.00;;;7.22;100.00
22261;BME280;11299;43.202;27.920;2023-04-30T02:18:57;-18959.88;;;7.29;100.00
22261;BME280;11299;43.202;27.920;2023-04-30T02:21:23;-18820.53;;;7.82;100.00
22261;BME280;11299;43.202;27.920;2023-04-30T02:23:48;-17025.31;;;7.87;100.00
22261;BME280;11299;43.202;27.920;2023-04-30T02:26:14;-16855.19;;;7.87;100.00
22261;BME280;11299;43.202;27.920;2023-04-30T02:28:39;-19983.50;;;7.80;100.00
22261;BME280;11299;43.202;27.920;2023-04-30T02:31:05;-18128.72;;;7.38;100.00
22261;BME280;11299;43.202;27.920;2023-04-30T02:33:30;-9359.00;;;7.79;100.00
22261;BME280;11299;43.202;27.920;2023-04-30T02:35:58;-5264.59;;;7.89;100.00
22261;BME280;11299;43.202;27.920;2023-04-30T02:38:24;-1847.56;;;7.82;100.00
22261;BME280;11299;43.202;27.920;2023-04-30T02:40:49;2596.34;;;7.35;100.00
22261;BME280;11299;43.202;27.920;2023-04-30T02:43:15;6025.38;;;7.92;100.00
22261;BME280;11299;43.202;27.920;2023-04-30T02:45:40;13207.94;;;6.97;100.00
22261;BME280;11299;43.202;27.920;2023-04-30T02:48:06;19075.66;;;7.96;100.00
22261;BME280;11299;43.202;27.920;2023-04-30T02:50:31;25933.75;;;7.26;100.00
22261;BME280;11299;43.202;27.920;2023-04-30T02:52:57;30441.38;;;7.79;100.00
22261;BME280;11299;43.202;27.920;2023-04-30T02:55:22;33197.44;;;7.67;100.00
22261;BME280;11299;43.202;27.920;2023-04-30T02:57:48;40127.72;;;7.90;100.00
22261;BME280;11299;43.202;27.920;2023-04-30T03:00:13;43251.84;;;7.99;100.00
22261;BME280;11299;43.202;27.920;2023-04-30T03:02:39;44230.78;;;7.16;100.00
22261;BME280;11299;43.202;27.920;2023-04-30T03:05:05;47049.34;;;7.77;100.00
22261;BME280;11299;43.202;27.920;2023-04-30T03:07:30;48056.63;;;7.35;100.00
22261;BME280;11299;43.202;27.920;2023-04-30T03:09:56;52601.28;;;7.74;100.00
22261;BME280;11299;43.202;27.920;2023-04-30T03:12:21;53977.28;;;7.58;100.00
22261;BME280;11299;43.202;27.920;2023-04-30T03:14:46;57839.97;;;7.98;100.00
22261;BME280;11299;43.202;27.920;2023-04-30T03:17:12;56094.25;;;7.92;100.00
22261;BME280;11299;43.202;27.920;2023-04-30T03:19:37;52605.69;;;7.79;100.00
22261;BME280;11299;43.202;27.920;2023-04-30T03:22:03;52607.44;;;7.81;100.00
22261;BME280;11299;43.202;27.920;2023-04-30T03:24:28;51213.13;;;7.75;100.00
22261;BME280;11299;43.202;27.920;2023-04-30T03:26:54;48454.19;;;7.98;100.00
22261;BME280;11299;43.202;27.920;2023-04-30T03:29:19;45325.28;;;7.90;100.00
22261;BME280;11299;43.202;27.920;2023-04-30T03:31:45;42864.13;;;7.41;100.00
22261;BME280;11299;43.202;27.920;2023-04-30T03:34:10;42543.66;;;7.78;100.00
22261;BME280;11299;43.202;27.920;2023-04-30T03:36:36;41519.59;;;7.99;100.00
22261;BME280;11299;43.202;27.920;2023-04-30T03:39:02;40135.16;;;8.01;100.00
22261;BME280;11299;43.202;27.920;2023-04-30T03:41:28;35595.91;;;7.33;100.00
22261;BME280;11299;43.202;27.920;2023-04-30T03:43:54;29076.09;;;8.09;100.00
22261;BME280;11299;43.202;27.920;2023-04-30T03:46:19;22520.31;;;8.01;100.00
22261;BME280;11299;43.202;27.920;2023-04-30T03:48:45;18396.22;;;8.23;100.00
22261;BME280;11299;43.202;27.920;2023-04-30T03:51:10;11171.06;;;7.96;100.00
22261;BME280;11299;43.202;27.920;2023-04-30T03:53:36;2601.84;;;8.20;100.00
22261;BME280;11299;43.202;27.920;2023-04-30T03:56:02;-2873.75;;;8.18;100.00
22261;BME280;11299;43.202;27.920;2023-04-30T03:58:28;-4925.06;;;8.24;100.00
22261;BME280;11299;43.202;27.920;2023-04-30T04:00:54;-4582.88;;;8.16;100.00
22261;BME280;11299;43.202;27.920;2023-04-30T04:03:20;-2874.00;;;8.29;100.00
22261;BME280;11299;43.202;27.920;2023-04-30T04:05:46;-1505.66;;;7.44;100.00
22261;BME280;11299;43.202;27.920;2023-04-30T04:08:11;547.28;;;8.16;100.00
22261;BME280;11299;43.202;27.920;2023-04-30T04:10:38;3288.75;;;8.43;100.00
22261;BME280;11299;43.202;27.920;2023-04-30T04:13:04;12205.34;;;8.16;100.00
22261;BME280;11299;43.202;27.920;2023-04-30T04:15:31;18744.69;;;8.36;100.00
22261;BME280;11299;43.202;27.920;2023-04-30T04:17:56;23569.75;;;8.40;100.00
22261;BME280;11299;43.202;27.920;2023-04-30T04:20:22;17351.38;;;7.82;100.00
22261;BME280;11299;43.202;27.920;2023-04-30T04:22:47;12538.22;;;7.69;100.00
22261;BME280;11299;43.202;27.920;2023-04-30T04:25:13;7743.28;;;8.18;100.00
22261;BME280;11299;43.202;27.920;2023-04-30T04:27:39;4659.66;;;8.41;100.00
22261;BME280;11299;43.202;27.920;2023-04-30T04:30:05;2598.44;;;7.67;100.00
22261;BME280;11299;43.202;27.920;2023-04-30T04:32:31;-4582.91;;;8.17;100.00
22261;BME280;11299;43.202;27.920;2023-04-30T04:34:57;-8340.88;;;8.25;100.00
22261;BME280;11299;43.202;27.920;2023-04-30T04:37:22;-18139.50;;;8.88;100.00
22261;BME280;11299;43.202;27.920;2023-04-30T04:39:48;-20964.63;;;8.88;100.00
22261;BME280;11299;43.202;27.920;2023-04-30T04:42:14;-20946.69;;;8.31;100.00
22261;BME280;11299;43.202;27.920;2023-04-30T04:44:41;-20957.09;;;8.64;100.00
22261;BME280;11299;43.202;27.920;2023-04-30T04:47:07;-20943.88;;;8.22;100.00
22261;BME280;11299;43.202;27.920;2023-04-30T04:49:34;-20968.41;;;9.00;100.00
22261;BME280;11299;43.202;27.920;2023-04-30T04:51:59;-20977.22;;;9.28;100.00
22261;BME280;11299;43.202;27.920;2023-04-30T04:54:26;-20969.03;;;9.02;100.00
22261;BME280;11299;43.202;27.920;2023-04-30T04:56:52;-20975.34;;;9.22;100.00
22261;BME280;11299;43.202;27.920;2023-04-30T04:59:17;-20981.94;;;9.43;100.00
22261;BME280;11299;43.202;27.920;2023-04-30T05:01:43;-20962.13;;;8.80;100.00
22261;BME280;11299;43.202;27.920;2023-04-30T05:04:08;-20992.00;;;9.76;100.00
22261;BME280;11299;43.202;27.920;2023-04-30T05:06:34;-20995.47;;;9.87;100.00
22261;BME280;11299;43.202;27.920;2023-04-30T05:09:00;-20977.84;;;9.30;100.00
22261;BME280;11299;43.202;27.920;2023-04-30T05:11:25;-20978.78;;;9.33;100.00
22261;BME280;11299;43.202;27.920;2023-04-30T05:13:51;-21000.97;;;10.04;100.00
22261;BME280;11299;43.202;27.920;2023-04-30T05:16:16;-20993.41;;;9.80;100.00
22261;BME280;11299;43.202;27.920;2023-04-30T05:18:41;-21011.19;;;10.37;100.00
22261;BME280;11299;43.202;27.920;2023-04-30T05:21:07;-21015.25;;;10.50;100.00
22261;BME280;11299;43.202;27.920;2023-04-30T05:23:32;-21009.59;;;10.32;100.00
22261;BME280;11299;43.202;27.920;2023-04-30T05:25:58;-21021.84;;;10.71;100.00
22261;BME280;11299;43.202;27.920;2023-04-30T05:28:23;-21029.88;;;10.97;100.00
22261;BME280;11299;43.202;27.920;2023-04-30T05:30:49;-21033.47;;;11.08;100.00
22261;BME280;11299;43.202;27.920;2023-04-30T05:33:14;-21042.75;;;11.38;100.00
22261;BME280;11299;43.202;27.920;2023-04-30T05:35:40;-21006.47;;;10.22;100.00
22261;BME280;11299;43.202;27.920;2023-04-30T05:38:06;-21044.78;;;11.45;100.00
22261;BME280;11299;43.202;27.920;2023-04-30T05:40:31;-21047.28;;;11.53;100.00
22261;BME280;11299;43.202;27.920;2023-04-30T05:42:57;-21047.94;;;11.55;100.00
22261;BME280;11299;43.202;27.920;2023-04-30T05:45:23;-21059.88;;;11.93;100.00
22261;BME280;11299;43.202;27.920;2023-04-30T05:47:48;-21061.75;;;11.99;100.00
22261;BME280;11299;43.202;27.920;2023-04-30T05:50:13;-21056.72;;;11.83;100.00
22261;BME280;11299;43.202;27.920;2023-04-30T05:52:39;-21049.50;;;11.60;100.00
22261;BME280;11299;43.202;27.920;2023-04-30T05:55:05;-21048.25;;;11.56;100.00
22261;BME280;11299;43.202;27.920;2023-04-30T05:57:31;-21070.22;;;12.26;100.00
22261;BME280;11299;43.202;27.920;2023-04-30T05:59:56;-21068.34;;;12.20;100.00
22261;BME280;11299;43.202;27.920;2023-04-30T06:02:22;-21055.47;;;11.79;100.00
22261;BME280;11299;43.202;27.920;2023-04-30T06:04:47;-21074.94;;;12.41;100.00
22261;BME280;11299;43.202;27.920;2023-04-30T06:07:13;-21073.03;;;12.35;100.00
22261;BME280;11299;43.202;27.920;2023-04-30T06:09:38;-21076.19;;;12.45;100.00
22261;BME280;11299;43.202;27.920;2023-04-30T06:12:04;-21079.16;;;12.55;100.00
22261;BME280;11299;43.202;27.920;2023-04-30T06:14:29;-21074.00;;;12.38;100.00
22261;BME280;11299;43.202;27.920;2023-04-30T06:16:55;-21082.47;;;12.65;100.00
22261;BME280;11299;43.202;27.920;2023-04-30T06:19:20;-21079.78;;;12.57;100.00
22261;BME280;11299;43.202;27.920;2023-04-30T06:21:46;-21100.97;;;13.25;100.00
22261;BME280;11299;43.202;27.920;2023-04-30T06:24:11;-21117.91;;;13.79;100.00
22261;BME280;11299;43.202;27.920;2023-04-30T06:26:37;-21108.81;;;13.50;100.00
22261;BME280;11299;43.202;27.920;2023-04-30T06:29:03;-21126.06;;;14.05;100.00
22261;BME280;11299;43.202;27.920;2023-04-30T06:31:29;-21124.16;;;13.99;100.00
22261;BME280;11299;43.202;27.920;2023-04-30T06:33:54;-21126.38;;;14.06;100.00
22261;BME280;11299;43.202;27.920;2023-04-30T06:36:20;-21138.59;;;14.45;100.00
22261;BME280;11299;43.202;27.920;2023-04-30T06:38:46;-21144.53;;;14.64;100.00
22261;BME280;11299;43.202;27.920;2023-04-30T06:41:12;-21151.91;;;14.88;100.00
22261;BME280;11299;43.202;27.920;2023-04-30T06:43:38;-21157.38;;;15.05;100.00
22261;BME280;11299;43.202;27.920;2023-04-30T06:46:03;-21160.84;;;15.17;98.33
22261;BME280;11299;43.202;27.920;2023-04-30T06:48:30;-21168.03;;;15.40;97.74
22261;BME280;11299;43.202;27.920;2023-04-30T06:50:56;-21177.28;;;15.69;87.99
22261;BME280;11299;43.202;27.920;2023-04-30T06:53:22;-21182.75;;;15.87;88.84
22261;BME280;11299;43.202;27.920;2023-04-30T06:55:47;-21177.75;;;15.71;87.07
22261;BME280;11299;43.202;27.920;2023-04-30T06:58:13;-21199.03;;;16.39;83.80
22261;BME280;11299;43.202;27.920;2023-04-30T07:00:39;-21204.03;;;16.55;79.57
22261;BME280;11299;43.202;27.920;2023-04-30T07:03:04;-21200.13;;;16.43;78.42
22261;BME280;11299;43.202;27.920;2023-04-30T07:05:30;-21190.25;;;16.11;71.30
22261;BME280;11299;43.202;27.920;2023-04-30T07:07:56;-21206.22;;;16.62;62.00
22261;BME280;11299;43.202;27.920;2023-04-30T07:10:22;-21210.28;;;16.75;58.57
22261;BME280;11299;43.202;27.920;2023-04-30T07:12:47;-21219.03;;;17.04;54.97
22261;BME280;11299;43.202;27.920;2023-04-30T07:15:13;-21230.94;;;17.42;53.15
22261;BME280;11299;43.202;27.920;2023-04-30T07:17:38;-21230.75;;;17.41;52.96
22261;BME280;11299;43.202;27.920;2023-04-30T07:20:06;-21238.59;;;17.66;52.40
22261;BME280;11299;43.202;27.920;2023-04-30T07:22:32;-21240.47;;;17.72;53.15
22261;BME280;11299;43.202;27.920;2023-04-30T07:24:58;-21250.94;;;18.06;52.10
22261;BME280;11299;43.202;27.920;2023-04-30T07:27:25;-21266.88;;;18.57;52.12
22261;BME280;11299;43.202;27.920;2023-04-30T07:29:50;-21252.81;;;18.12;53.13
22261;BME280;11299;43.202;27.920;2023-04-30T07:32:16;-21239.06;;;17.68;52.49
22261;BME280;11299;43.202;27.920;2023-04-30T07:34:41;-21254.06;;;18.16;53.32
22261;BME280;11299;43.202;27.920;2023-04-30T07:37:10;-21248.44;;;17.98;54.00
22261;BME280;11299;43.202;27.920;2023-04-30T07:39:36;-21268.13;;;18.61;53.67
22261;BME280;11299;43.202;27.920;2023-04-30T07:42:02;-21276.22;;;18.88;53.15
22261;BME280;11299;43.202;27.920;2023-04-30T07:44:28;-21260.63;;;18.37;51.74
22261;BME280;11299;43.202;27.920;2023-04-30T07:46:54;-21271.41;;;18.72;52.67
22261;BME280;11299;43.202;27.920;2023-04-30T07:49:20;-21269.38;;;18.65;52.86
22261;BME280;11299;43.202;27.920;2023-04-30T07:51:46;-21282.63;;;19.08;52.07
22261;BME280;11299;43.202;27.920;2023-04-30T07:54:11;-21292.78;;;19.41;51.44
22261;BME280;11299;43.202;27.920;2023-04-30T07:56:37;-21298.41;;;19.59;51.72
22261;BME280;11299;43.202;27.920;2023-04-30T07:59:02;-21306.50;;;19.85;49.96
22261;BME280;11299;43.202;27.920;2023-04-30T08:01:28;-21315.88;;;20.15;50.37
22261;BME280;11299;43.202;27.920;2023-04-30T08:03:53;-21316.34;;;20.17;49.95
22261;BME280;11299;43.202;27.920;2023-04-30T08:06:19;-21289.97;;;19.32;50.69
22261;BME280;11299;43.202;27.920;2023-04-30T08:08:44;-21311.97;;;20.03;50.31
22261;BME280;11299;43.202;27.920;2023-04-30T08:11:10;-21321.19;;;20.32;50.59
22261;BME280;11299;43.202;27.920;2023-04-30T08:13:36;-21301.69;;;19.69;51.03
22261;BME280;11299;43.202;27.920;2023-04-30T08:16:02;-21304.00;;;19.77;50.82
22261;BME280;11299;43.202;27.920;2023-04-30T08:18:28;-21252.19;;;18.10;50.89
22261;BME280;11299;43.202;27.920;2023-04-30T08:20:54;-21307.13;;;19.87;51.83
22261;BME280;11299;43.202;27.920;2023-04-30T08:23:19;-21310.09;;;19.97;52.17
22261;BME280;11299;43.202;27.920;2023-04-30T08:25:44;-21299.81;;;19.63;51.97
22261;BME280;11299;43.202;27.920;2023-04-30T08:28:10;-21301.53;;;19.69;52.10
22261;BME280;11299;43.202;27.920;2023-04-30T08:30:35;-21304.94;;;19.80;52.51
22261;BME280;11299;43.202;27.920;2023-04-30T08:33:01;-21305.72;;;19.83;52.26
22261;BME280;11299;43.202;27.920;2023-04-30T08:35:27;-21314.31;;;20.10;51.70
22261;BME280;11299;43.202;27.920;2023-04-30T08:37:54;-21312.13;;;20.03;52.20
22261;BME280;11299;43.202;27.920;2023-04-30T08:40:19;-21323.81;;;20.41;52.94
22261;BME280;11299;43.202;27.920;2023-04-30T08:42:49;-21299.03;;;19.61;52.89
22261;BME280;11299;43.202;27.920;2023-04-30T08:45:18;-21324.91;;;20.44;51.89
22261;BME280;11299;43.202;27.920;2023-04-30T08:47:44;-21325.38;;;20.46;50.93
22261;BME280;11299;43.202;27.920;2023-04-30T08:50:10;-21325.38;;;20.46;50.84
22261;BME280;11299;43.202;27.920;2023-04-30T08:52:36;-21324.28;;;20.42;52.89
22261;BME280;11299;43.202;27.920;2023-04-30T08:55:06;-21323.03;;;20.38;51.23
22261;BME280;11299;43.202;27.920;2023-04-30T08:57:31;-21331.63;;;20.66;51.93
22261;BME280;11299;43.202;27.920;2023-04-30T08:59:57;-21333.03;;;20.71;51.51
22261;BME280;11299;43.202;27.920;2023-04-30T09:02:22;-21319.94;;;20.28;50.64
22261;BME280;11299;43.202;27.920;2023-04-30T09:04:48;-21309.47;;;19.95;50.58
22261;BME280;11299;43.202;27.920;2023-04-30T09:07:14;-21342.06;;;21.00;50.37
22261;BME280;11299;43.202;27.920;2023-04-30T09:09:41;-21337.69;;;20.86;49.58
22261;BME280;11299;43.202;27.920;2023-04-30T09:12:14;-21345.50;;;21.11;48.64
22261;BME280;11299;43.202;27.920;2023-04-30T09:14:57;-21359.50;;;21.56;48.84
22261;BME280;11299;43.202;27.920;2023-04-30T09:17:24;-21355.47;;;21.43;48.30
22261;BME280;11299;43.202;27.920;2023-04-30T09:19:50;-21338.16;;;20.87;48.92
22261;BME280;11299;43.202;27.920;2023-04-30T09:22:22;-21327.88;;;20.54;49.59
22261;BME280;11299;43.202;27.920;2023-04-30T09:24:49;-21328.03;;;20.54;49.84
22261;BME280;11299;43.202;27.920;2023-04-30T09:27:20;-21317.44;;;20.20;50.35
22261;BME280;11299;43.202;27.920;2023-04-30T09:29:46;-21346.13;;;21.13;49.40
22261;BME280;11299;43.202;27.920;2023-04-30T09:32:12;-21345.97;;;21.12;49.37
22261;BME280;11299;43.202;27.920;2023-04-30T09:34:38;-21338.94;;;20.90;48.85
22261;BME280;11299;43.202;27.920;2023-04-30T09:37:04;-21369.19;;;21.87;48.14
22261;BME280;11299;43.202;27.920;2023-04-30T09:39:30;-21368.88;;;21.86;47.92
22261;BME280;11299;43.202;27.920;2023-04-30T09:42:09;-21380.22;;;22.23;47.51
22261;BME280;11299;43.202;27.920;2023-04-30T09:44:39;-21387.84;;;22.48;46.98
22261;BME280;11299;43.202;27.920;2023-04-30T09:47:14;-21361.06;;;21.61;46.68
22261;BME280;11299;43.202;27.920;2023-04-30T09:49:41;-21360.44;;;21.59;46.70
22261;BME280;11299;43.202;27.920;2023-04-30T09:52:07;-21362.94;;;21.67;46.41
22261;BME280;11299;43.202;27.920;2023-04-30T09:54:33;-21387.38;;;22.46;46.48
22261;BME280;11299;43.202;27.920;2023-04-30T09:57:00;-21383.81;;;22.34;46.07
22261;BME280;11299;43.202;27.920;2023-04-30T09:59:33;-21366.69;;;21.79;46.44
22261;BME280;11299;43.202;27.920;2023-04-30T10:02:07;-21367.94;;;21.83;46.36
22261;BME280;11299;43.202;27.920;2023-04-30T10:04:34;-21377.56;;;22.14;47.19
22261;BME280;11299;43.202;27.920;2023-04-30T10:07:15;-21385.38;;;22.39;46.18
22261;BME280;11299;43.202;27.920;2023-04-30T10:09:49;-21397.50;;;22.79;45.75
22261;BME280;11299;43.202;27.920;2023-04-30T10:12:21;-21378.97;;;22.19;44.68
22261;BME280;11299;43.202;27.920;2023-04-30T10:14:57;-21385.97;;;22.41;44.21
22261;BME280;11299;43.202;27.920;2023-04-30T10:17:26;-21385.22;;;22.39;44.87
22261;BME280;11299;43.202;27.920;2023-04-30T10:19:57;-21392.38;;;22.62;44.61
22261;BME280;11299;43.202;27.920;2023-04-30T10:22:27;-21367.00;;;21.80;44.60
22261;BME280;11299;43.202;27.920;2023-04-30T10:24:52;-21399.06;;;22.84;44.32
22261;BME280;11299;43.202;27.920;2023-04-30T10:27:18;-21391.75;;;22.60;44.29
22261;BME280;11299;43.202;27.920;2023-04-30T10:29:44;-21400.63;;;22.89;43.41
22261;BME280;11299;43.202;27.920;2023-04-30T10:32:11;-21398.13;;;22.81;43.05
22261;BME280;11299;43.202;27.920;2023-04-30T10:40:03;-21397.50;;;22.79;43.33
22261;BME280;11299;43.202;27.920;2023-04-30T10:42:29;-21403.72;;;22.99;42.39
22261;BME280;11299;43.202;27.920;2023-04-30T10:44:55;-21398.13;;;22.81;42.16
22261;BME280;11299;43.202;27.920;2023-04-30T10:47:27;-21400.63;;;22.89;42.31
22261;BME280;11299;43.202;27.920;2023-04-30T10:50:03;-21405.28;;;23.04;42.34
22261;BME280;11299;43.202;27.920;2023-04-30T10:52:29;-21402.16;;;22.94;42.74
22261;BME280;11299;43.202;27.920;2023-04-30T10:54:55;-21422.69;;;23.60;41.46
22261;BME280;11299;43.202;27.920;2023-04-30T10:57:20;-21435.13;;;24.00;40.17
22261;BME280;11299;43.202;27.920;2023-04-30T11:02:15;-21409.78;;;23.18;40.59
22261;BME280;11299;43.202;27.920;2023-04-30T11:05:17;-21415.25;;;23.36;40.94
22261;BME280;11299;43.202;27.920;2023-04-30T11:07:48;-21407.63;;;23.11;41.37
22261;BME280;11299;43.202;27.920;2023-04-30T11:10:14;-21426.13;;;23.71;40.92
22261;BME280;11299;43.202;27.920;2023-04-30T11:12:46;-21443.84;;;24.28;40.33
22261;BME280;11299;43.202;27.920;2023-04-30T11:15:14;-21453.16;;;24.59;39.69
22261;BME280;11299;43.202;27.920;2023-04-30T11:17:42;-21449.91;;;24.48;40.13
22261;BME280;11299;43.202;27.920;2023-04-30T11:20:11;-21456.13;;;24.68;38.48
22261;BME280;11299;43.202;27.920;2023-04-30T11:22:38;-21451.31;;;24.53;39.09
22261;BME280;11299;43.202;27.920;2023-04-30T11:25:08;-21446.03;;;24.36;38.90
22261;BME280;11299;43.202;27.920;2023-04-30T11:27:36;-21435.75;;;24.02;38.74
22261;BME280;11299;43.202;27.920;2023-04-30T11:30:08;-21425.34;;;23.69;39.12
22261;BME280;11299;43.202;27.920;2023-04-30T11:32:35;-21410.72;;;23.21;39.50
22261;BME280;11299;43.202;27.920;2023-04-30T11:35:02;-21421.78;;;23.57;39.98
22261;BME280;11299;43.202;27.920;2023-04-30T11:37:37;-21439.19;;;24.13;39.60
22261;BME280;11299;43.202;27.920;2023-04-30T11:40:05;-21439.81;;;24.15;38.23
22261;BME280;11299;43.202;27.920;2023-04-30T11:42:33;-21447.72;;;24.41;38.27
22261;BME280;11299;43.202;27.920;2023-04-30T11:45:13;-21463.41;;;24.92;37.72
22261;BME280;11299;43.202;27.920;2023-04-30T11:47:52;-21465.91;;;25.00;37.24
22261;BME280;11299;43.202;27.920;2023-04-30T11:50:20;-21477.53;;;25.38;37.76
22261;BME280;11299;43.202;27.920;2023-04-30T11:52:52;-21478.03;;;25.39;36.96
22261;BME280;11299;43.202;27.920;2023-04-30T11:55:22;-21455.97;;;24.68;36.73
22261;BME280;11299;43.202;27.920;2023-04-30T11:57:49;-21468.84;;;25.09;36.49
22261;BME280;11299;43.202;27.920;2023-04-30T12:00:17;-21469.63;;;25.12;37.55
22261;BME280;11299;43.202;27.920;2023-04-30T12:02:48;-21466.84;;;25.03;38.19
22261;BME280;11299;43.202;27.920;2023-04-30T12:07:44;-21470.56;;;25.15;36.38
22261;BME280;11299;43.202;27.920;2023-04-30T12:10:10;-21467.75;;;25.06;36.75
22261;BME280;11299;43.202;27.920;2023-04-30T12:12:36;-21467.47;;;25.05;35.91
22261;BME280;11299;43.202;27.920;2023-04-30T12:15:15;-21496.63;;;25.99;35.75
22261;BME280;11299;43.202;27.920;2023-04-30T12:17:41;-21485.78;;;25.64;35.79
22261;BME280;11299;43.202;27.920;2023-04-30T12:20:08;-21469.31;;;25.11;35.14
22261;BME280;11299;43.202;27.920;2023-04-30T12:22:34;-21485.63;;;25.64;36.02
22261;BME280;11299;43.202;27.920;2023-04-30T12:25:05;-21486.09;;;25.65;36.53
22261;BME280;11299;43.202;27.920;2023-04-30T12:27:32;-21493.06;;;25.88;36.25
22261;BME280;11299;43.202;27.920;2023-04-30T12:30:02;-21500.38;;;26.12;36.19
22261;BME280;11299;43.202;27.920;2023-04-30T12:32:28;-21484.69;;;25.61;42.71
22261;BME280;11299;43.202;27.920;2023-04-30T12:34:57;-21461.25;;;24.85;45.47
22261;BME280;11299;43.202;27.920;2023-04-30T12:37:25;-21446.78;;;24.38;46.83
22261;BME280;11299;43.202;27.920;2023-04-30T12:39:51;-21455.97;;;24.68;46.24
22261;BME280;11299;43.202;27.920;2023-04-30T12:42:19;-21457.81;;;24.74;48.89
22261;BME280;11299;43.202;27.920;2023-04-30T12:44:45;-21406.69;;;23.08;52.86
22261;BME280;11299;43.202;27.920;2023-04-30T12:47:10;-21416.19;;;23.39;56.43
22261;BME280;11299;43.202;27.920;2023-04-30T12:49:36;-21385.97;;;22.41;66.05
22261;BME280;11299;43.202;27.920;2023-04-30T12:52:02;-21397.19;;;22.78;67.10
22261;BME280;11299;43.202;27.920;2023-04-30T12:54:32;-21371.97;;;21.96;66.16
22261;BME280;11299;43.202;27.920;2023-04-30T12:57:09;-21377.56;;;22.14;62.88
22261;BME280;11299;43.202;27.920;2023-04-30T13:02:10;-21361.22;;;21.62;76.63
22261;BME280;11299;43.202;27.920;2023-04-30T13:04:37;-21350.16;;;21.26;83.90
22261;BME280;11299;43.202;27.920;2023-04-30T13:07:03;-21348.91;;;21.22;83.02
22261;BME280;11299;43.202;27.920;2023-04-30T13:09:32;-21339.09;;;20.90;82.07
22261;BME280;11299;43.202;27.920;2023-04-30T13:11:58;-21324.59;;;20.43;78.57